Time;durP1;ratioP1;P1;durP2;ratioP2;P2;SDS_P1;SDS_P2;PMS_P1;PMS_P2;Temp;Humidity;BMP_temperature;BMP_pressure;BME280_temperature;BME280_humidity;BME280_pressure;Samples;Min_cycle;Max_cycle;Signal;HPM_P1;HPM_P2
2024/01/21 00:02:12;;;;;;;16.23;7.75;;;;;;;;;;5033822;28;20041;-66
2024/01/21 00:04:38;;;;;;;12.30;6.70;;;;;;;;;;5035984;28;20041;-66
2024/01/21 00:07:04;;;;;;;13.02;6.30;;;;;;;;;;5057380;28;20029;-66
2024/01/21 00:09:30;;;;;;;16.13;8.07;;;;;;;;;;5037807;28;20040;-67
2024/01/21 00:11:56;;;;;;;14.32;7.35;;;;;;;;;;5035184;28;20052;-66
2024/01/21 00:14:23;;;;;;;13.02;6.35;;;;;;;;;;5058084;28;20101;-66
2024/01/21 00:16:49;;;;;;;14.15;6.28;;;;;;;;;;5054697;28;20045;-66
2024/01/21 00:19:15;;;;;;;13.18;6.57;;;;;;;;;;5041482;28;20127;-66
2024/01/21 00:21:41;;;;;;;13.02;7.00;;;;;;;;;;5035096;28;20061;-66
2024/01/21 00:24:07;;;;;;;13.60;6.93;;;;;;;;;;5038281;28;20037;-67
2024/01/21 00:26:34;;;;;;;16.05;7.20;;;;;;;;;;5036450;28;20393;-67
2024/01/21 00:29:00;;;;;;;15.63;7.32;;;;;;;;;;5057114;28;20126;-66
2024/01/21 00:31:28;;;;;;;12.65;7.00;;;;;;;;;;5046712;28;20534;-66
2024/01/21 00:33:54;;;;;;;11.93;6.55;;;;;;;;;;5025728;28;20060;-67
2024/01/21 00:36:20;;;;;;;12.02;6.25;;;;;;;;;;5036432;28;20163;-66
2024/01/21 00:38:46;;;;;;;13.85;8.05;;;;;;;;;;5055408;28;20400;-67
2024/01/21 00:41:13;;;;;;;15.07;6.53;;;;;;;;;;5041678;28;20053;-66
2024/01/21 00:43:39;;;;;;;11.93;6.57;;;;;;;;;;5055302;28;20037;-66
2024/01/21 00:46:06;;;;;;;13.00;6.60;;;;;;;;;;5058609;28;20195;-66
2024/01/21 00:48:33;;;;;;;11.95;6.15;;;;;;;;;;5055915;28;20145;-66
2024/01/21 00:50:59;;;;;;;14.38;6.07;;;;;;;;;;5053572;28;20398;-66
2024/01/21 00:53:25;;;;;;;13.48;6.72;;;;;;;;;;5054340;28;20044;-67
2024/01/21 00:55:52;;;;;;;12.57;6.78;;;;;;;;;;5035613;28;20055;-66
2024/01/21 00:58:18;;;;;;;12.27;6.78;;;;;;;;;;5037748;28;20412;-67
2024/01/21 01:00:44;;;;;;;11.90;6.43;;;;;;;;;;5037411;28;20113;-66
2024/01/21 01:03:10;;;;;;;13.85;6.18;;;;;;;;;;5039222;28;20049;-66
2024/01/21 01:05:37;;;;;;;12.32;6.50;;;;;;;;;;5034843;28;20055;-66
2024/01/21 01:08:03;;;;;;;12.82;6.18;;;;;;;;;;5052124;28;20072;-67
2024/01/21 01:10:32;;;;;;;12.82;6.82;;;;;;;;;;5052192;28;20128;-66
2024/01/21 01:12:58;;;;;;;13.40;6.78;;;;;;;;;;5052468;28;20041;-66
2024/01/21 01:15:24;;;;;;;11.02;6.43;;;;;;;;;;5057782;28;20037;-66
2024/01/21 01:17:51;;;;;;;15.35;7.32;;;;;;;;;;5035664;28;20076;-67
2024/01/21 01:20:18;;;;;;;13.07;7.00;;;;;;;;;;5037202;28;20045;-66
2024/01/21 01:22:44;;;;;;;13.85;7.78;;;;;;;;;;5026957;28;20098;-66
2024/01/21 01:25:10;;;;;;;14.88;6.82;;;;;;;;;;5036952;28;20110;-66
2024/01/21 01:27:36;;;;;;;13.45;6.55;;;;;;;;;;5045323;28;20053;-66
2024/01/21 01:30:03;;;;;;;13.70;7.35;;;;;;;;;;5034675;28;20037;-66
2024/01/21 01:32:29;;;;;;;12.05;6.97;;;;;;;;;;5043115;28;20055;-66
2024/01/21 01:34:55;;;;;;;15.57;6.88;;;;;;;;;;5048597;28;20044;-66
2024/01/21 01:37:22;;;;;;;12.52;5.68;;;;;;;;;;5017633;28;20509;-66
2024/01/21 01:39:48;;;;;;;13.52;6.60;;;;;;;;;;5025719;28;20056;-66
2024/01/21 01:42:15;;;;;;;12.50;6.40;;;;;;;;;;5014877;28;20158;-67
2024/01/21 01:44:41;;;;;;;10.27;5.53;;;;;;;;;;5030830;28;20457;-66
2024/01/21 01:47:08;;;;;;;11.75;5.63;;;;;;;;;;5012203;28;20041;-66
2024/01/21 01:49:37;;;;;;;12.25;6.00;;;;;;;;;;5035036;28;21847;-66
2024/01/21 01:52:03;;;;;;;13.77;7.07;;;;;;;;;;5040758;28;20364;-67
2024/01/21 01:54:30;;;;;;;10.15;5.15;;;;;;;;;;5019202;28;20056;-66
2024/01/21 01:56:56;;;;;;;11.35;5.47;;;;;;;;;;5036454;28;20476;-66
2024/01/21 01:59:23;;;;;;;9.70;5.00;;;;;;;;;;5023135;28;20053;-67
2024/01/21 02:01:49;;;;;;;9.27;4.43;;;;;;;;;;5038841;28;20678;-66
2024/01/21 02:04:15;;;;;;;8.23;4.68;;;;;;;;;;5036899;28;20049;-67
2024/01/21 02:06:42;;;;;;;13.20;4.95;;;;;;;;;;5040482;28;20076;-66
2024/01/21 02:09:08;;;;;;;8.98;4.47;;;;;;;;;;5039800;28;20049;-66
2024/01/21 02:11:34;;;;;;;8.48;4.65;;;;;;;;;;5018133;28;20140;-66
2024/01/21 02:14:00;;;;;;;12.13;5.30;;;;;;;;;;5022628;28;20131;-66
2024/01/21 02:16:27;;;;;;;10.15;4.95;;;;;;;;;;5019689;28;21246;-66
2024/01/21 02:18:53;;;;;;;10.52;5.03;;;;;;;;;;5019344;28;20132;-67
2024/01/21 02:21:20;;;;;;;10.13;4.85;;;;;;;;;;5021461;28;20151;-68
2024/01/21 02:23:46;;;;;;;10.40;5.75;;;;;;;;;;5023639;28;20051;-67
2024/01/21 02:26:12;;;;;;;12.98;5.75;;;;;;;;;;5028198;28;20064;-67
2024/01/21 02:28:38;;;;;;;12.90;5.57;;;;;;;;;;5026971;28;20393;-67
2024/01/21 02:31:04;;;;;;;10.90;5.93;;;;;;;;;;5045323;28;20047;-67
2024/01/21 02:33:31;;;;;;;10.70;5.53;;;;;;;;;;5029352;28;20125;-67
2024/01/21 02:35:57;;;;;;;9.55;4.90;;;;;;;;;;5026489;28;20132;-67
2024/01/21 02:38:23;;;;;;;10.00;5.22;;;;;;;;;;5027107;28;20693;-66
2024/01/21 02:40:49;;;;;;;10.80;5.47;;;;;;;;;;5046821;28;20063;-67
2024/01/21 02:43:15;;;;;;;10.45;5.32;;;;;;;;;;5028046;28;20044;-67
2024/01/21 02:45:42;;;;;;;11.65;5.40;;;;;;;;;;5046528;28;20159;-67
2024/01/21 02:48:08;;;;;;;11.18;6.28;;;;;;;;;;5028170;28;20041;-67
2024/01/21 02:50:34;;;;;;;11.55;5.35;;;;;;;;;;5043916;28;20041;-67
2024/01/21 02:53:00;;;;;;;9.65;4.63;;;;;;;;;;5027772;28;20101;-67
2024/01/21 02:55:26;;;;;;;10.98;5.05;;;;;;;;;;5028058;28;20037;-67
2024/01/21 02:57:52;;;;;;;9.73;5.43;;;;;;;;;;5043478;28;20044;-67
2024/01/21 03:00:19;;;;;;;10.98;6.00;;;;;;;;;;5011004;28;20053;-66
2024/01/21 03:02:45;;;;;;;10.75;5.32;;;;;;;;;;5045828;28;20174;-66
2024/01/21 03:05:12;;;;;;;10.65;5.07;;;;;;;;;;5044317;28;20545;-67
2024/01/21 03:07:38;;;;;;;9.30;5.28;;;;;;;;;;5028034;28;20037;-67
2024/01/21 03:10:05;;;;;;;10.68;5.38;;;;;;;;;;5037941;28;20083;-66
2024/01/21 03:12:31;;;;;;;9.88;5.15;;;;;;;;;;5026601;28;20064;-66
2024/01/21 03:14:57;;;;;;;10.88;5.13;;;;;;;;;;5028245;28;20033;-66
2024/01/21 03:17:24;;;;;;;9.35;5.00;;;;;;;;;;5027255;28;20045;-66
2024/01/21 03:19:50;;;;;;;8.73;4.53;;;;;;;;;;5026818;28;20041;-67
2024/01/21 03:22:17;;;;;;;11.75;5.40;;;;;;;;;;5047773;28;20033;-67
2024/01/21 03:24:43;;;;;;;10.70;5.07;;;;;;;;;;5045975;28;20041;-67
2024/01/21 03:27:09;;;;;;;10.85;5.28;;;;;;;;;;5025326;28;20089;-66
2024/01/21 03:29:35;;;;;;;10.70;5.72;;;;;;;;;;5023680;28;20111;-67
2024/01/21 03:32:02;;;;;;;11.23;4.90;;;;;;;;;;5024764;28;20074;-67
2024/01/21 03:34:28;;;;;;;9.43;4.57;;;;;;;;;;5009060;28;20040;-67
2024/01/21 03:36:54;;;;;;;9.13;4.75;;;;;;;;;;5024315;28;20388;-66
2024/01/21 03:39:20;;;;;;;13.57;5.57;;;;;;;;;;5022769;28;20057;-66
2024/01/21 03:41:47;;;;;;;8.73;5.03;;;;;;;;;;5014589;28;20041;-67
2024/01/21 03:44:14;;;;;;;9.50;4.55;;;;;;;;;;5041550;28;20059;-66
2024/01/21 03:46:40;;;;;;;8.15;4.63;;;;;;;;;;5026616;28;20047;-67
2024/01/21 03:49:09;;;;;;;9.68;4.55;;;;;;;;;;5026038;28;20048;-67
2024/01/21 03:51:35;;;;;;;14.73;5.45;;;;;;;;;;5042674;28;20389;-67
2024/01/21 03:54:02;;;;;;;11.55;4.70;;;;;;;;;;5025800;28;20126;-67
2024/01/21 03:56:28;;;;;;;8.93;4.55;;;;;;;;;;5043348;28;20041;-67
2024/01/21 03:58:54;;;;;;;8.73;4.30;;;;;;;;;;5026374;28;20174;-66
2024/01/21 04:01:20;;;;;;;8.40;4.00;;;;;;;;;;5023477;28;20692;-67
2024/01/21 04:03:46;;;;;;;7.53;4.25;;;;;;;;;;5026622;28;20066;-67
2024/01/21 04:06:13;;;;;;;10.48;4.65;;;;;;;;;;5026708;28;20049;-67
2024/01/21 04:08:39;;;;;;;8.20;4.38;;;;;;;;;;5025677;28;20495;-67
2024/01/21 04:11:05;;;;;;;9.02;4.18;;;;;;;;;;5025171;28;20078;-66
2024/01/21 04:13:32;;;;;;;9.82;4.55;;;;;;;;;;5031907;28;20059;-66
2024/01/21 04:15:59;;;;;;;8.75;4.18;;;;;;;;;;5030182;28;20052;-66
2024/01/21 04:18:25;;;;;;;7.75;4.10;;;;;;;;;;5013126;28;20148;-66
2024/01/21 04:20:51;;;;;;;8.02;4.28;;;;;;;;;;5026150;28;20056;-66
2024/01/21 04:23:17;;;;;;;8.02;4.28;;;;;;;;;;5027264;28;20068;-67
2024/01/21 04:25:44;;;;;;;8.70;4.10;;;;;;;;;;5047092;28;20041;-67
2024/01/21 04:28:10;;;;;;;10.05;4.63;;;;;;;;;;5046398;28;20414;-67
2024/01/21 04:30:36;;;;;;;8.88;4.22;;;;;;;;;;5026168;28;20056;-67
2024/01/21 04:33:02;;;;;;;9.10;4.28;;;;;;;;;;5027984;28;20424;-67
2024/01/21 04:35:28;;;;;;;11.07;4.47;;;;;;;;;;5027051;28;20056;-66
2024/01/21 04:37:54;;;;;;;10.10;4.32;;;;;;;;;;5024421;28;20041;-66
2024/01/21 04:40:21;;;;;;;9.50;4.32;;;;;;;;;;5047091;28;20037;-67
2024/01/21 04:42:47;;;;;;;10.70;4.38;;;;;;;;;;5029058;28;20041;-67
2024/01/21 04:45:16;;;;;;;8.40;3.72;;;;;;;;;;5027360;28;20609;-67
2024/01/21 04:47:42;;;;;;;8.68;4.22;;;;;;;;;;5016883;28;20033;-66
2024/01/21 04:50:09;;;;;;;9.25;4.03;;;;;;;;;;5025651;28;20124;-66
2024/01/21 04:52:35;;;;;;;8.25;3.78;;;;;;;;;;5029045;28;20103;-66
2024/01/21 04:55:04;;;;;;;9.82;4.47;;;;;;;;;;5028774;28;20134;-67
2024/01/21 04:57:30;;;;;;;7.22;3.95;;;;;;;;;;5049228;28;20515;-66
2024/01/21 04:59:57;;;;;;;8.35;3.88;;;;;;;;;;5020673;28;20436;-66
2024/01/21 05:02:23;;;;;;;8.60;4.30;;;;;;;;;;5047365;28;20038;-66
2024/01/21 05:04:49;;;;;;;7.57;4.10;;;;;;;;;;5031904;28;20070;-66
2024/01/21 05:07:15;;;;;;;8.65;3.70;;;;;;;;;;5047724;28;20048;-66
2024/01/21 05:09:41;;;;;;;8.70;4.25;;;;;;;;;;5048554;28;20086;-66
2024/01/21 05:12:07;;;;;;;8.43;4.25;;;;;;;;;;5044650;28;20372;-67
2024/01/21 05:14:34;;;;;;;8.68;4.13;;;;;;;;;;5031246;28;20500;-67
2024/01/21 05:17:00;;;;;;;6.60;3.38;;;;;;;;;;5032325;28;20045;-66
2024/01/21 05:19:26;;;;;;;7.25;3.03;;;;;;;;;;5046037;28;20049;-66
2024/01/21 05:21:53;;;;;;;10.23;3.42;;;;;;;;;;5033400;28;20112;-66
2024/01/21 05:24:19;;;;;;;8.60;4.13;;;;;;;;;;5032026;28;20128;-66
2024/01/21 05:26:45;;;;;;;11.02;3.90;;;;;;;;;;5031486;28;20045;-66
2024/01/21 05:29:12;;;;;;;8.57;3.85;;;;;;;;;;5032684;28;20065;-67
2024/01/21 05:31:38;;;;;;;7.75;3.50;;;;;;;;;;5049769;28;20060;-67
2024/01/21 05:34:04;;;;;;;6.90;3.78;;;;;;;;;;5029609;28;20049;-67
2024/01/21 05:36:30;;;;;;;6.60;3.38;;;;;;;;;;5029929;28;20409;-66
2024/01/21 05:38:57;;;;;;;7.63;3.38;;;;;;;;;;5043746;28;20029;-67
2024/01/21 05:41:23;;;;;;;8.02;3.95;;;;;;;;;;5040504;28;20057;-66
2024/01/21 05:43:49;;;;;;;8.43;3.58;;;;;;;;;;5045386;28;20048;-66
2024/01/21 05:46:15;;;;;;;6.10;3.00;;;;;;;;;;5028683;28;20481;-66
2024/01/21 05:48:41;;;;;;;7.88;3.53;;;;;;;;;;5048838;28;20098;-66
2024/01/21 05:51:07;;;;;;;9.85;3.72;;;;;;;;;;5026247;28;20049;-66
2024/01/21 05:53:34;;;;;;;9.45;4.10;;;;;;;;;;5026688;28;20132;-66
2024/01/21 05:56:00;;;;;;;9.40;4.05;;;;;;;;;;5029113;28;20118;-66
2024/01/21 05:58:26;;;;;;;7.72;4.03;;;;;;;;;;5027687;28;20438;-66
2024/01/21 06:00:52;;;;;;;7.50;3.60;;;;;;;;;;5043360;28;20040;-66
2024/01/21 06:03:18;;;;;;;8.70;3.55;;;;;;;;;;5026690;28;20072;-67
2024/01/21 06:05:44;;;;;;;8.63;4.07;;;;;;;;;;5045641;28;20052;-67
2024/01/21 06:08:11;;;;;;;8.00;3.40;;;;;;;;;;5024567;28;20531;-66
2024/01/21 06:10:37;;;;;;;7.45;3.70;;;;;;;;;;5045377;28;20048;-67
2024/01/21 06:13:03;;;;;;;8.68;3.65;;;;;;;;;;5027564;28;20094;-66
2024/01/21 06:15:29;;;;;;;7.10;3.22;;;;;;;;;;5025402;28;20053;-66
2024/01/21 06:17:55;;;;;;;6.18;3.05;;;;;;;;;;5046714;28;20116;-66
2024/01/21 06:20:22;;;;;;;7.68;3.47;;;;;;;;;;5046758;28;20045;-66
2024/01/21 06:22:48;;;;;;;7.45;3.72;;;;;;;;;;5028492;28;20045;-66
2024/01/21 06:25:14;;;;;;;10.05;3.58;;;;;;;;;;5042974;28;20048;-66
2024/01/21 06:27:40;;;;;;;6.93;3.22;;;;;;;;;;5021198;28;20424;-66
2024/01/21 06:30:11;;;;;;;6.85;3.33;;;;;;;;;;5025472;28;20112;-66
2024/01/21 06:32:37;;;;;;;6.72;3.53;;;;;;;;;;5026846;28;20060;-67
2024/01/21 06:35:04;;;;;;;6.82;3.40;;;;;;;;;;5026256;28;20078;-67
2024/01/21 06:37:30;;;;;;;7.03;3.13;;;;;;;;;;5027424;28;20049;-66
2024/01/21 06:39:56;;;;;;;7.43;3.65;;;;;;;;;;5025925;28;20128;-67
2024/01/21 06:42:22;;;;;;;8.32;3.47;;;;;;;;;;5026474;28;20052;-67
2024/01/21 06:44:48;;;;;;;6.93;3.50;;;;;;;;;;5028374;28;20175;-66
2024/01/21 06:47:15;;;;;;;8.25;3.08;;;;;;;;;;5046095;28;20047;-67
2024/01/21 06:49:41;;;;;;;7.90;3.83;;;;;;;;;;5047051;28;20130;-68
2024/01/21 06:52:08;;;;;;;7.38;3.63;;;;;;;;;;5046107;28;20897;-66
2024/01/21 06:54:34;;;;;;;7.78;3.47;;;;;;;;;;5024333;28;20037;-66
2024/01/21 06:57:00;;;;;;;14.60;4.05;;;;;;;;;;5040184;28;20128;-67
2024/01/21 06:59:26;;;;;;;9.35;3.58;;;;;;;;;;5025207;28;20041;-66
2024/01/21 07:01:53;;;;;;;9.55;5.10;;;;;;;;;;5042852;28;20051;-66
2024/01/21 07:04:19;;;;;;;6.55;3.35;;;;;;;;;;5042808;28;20051;-67
2024/01/21 07:06:45;;;;;;;8.30;3.92;;;;;;;;;;5023638;28;20404;-66
2024/01/21 07:09:12;;;;;;;8.10;3.83;;;;;;;;;;5038207;28;20045;-66
2024/01/21 07:11:42;;;;;;;7.38;3.95;;;;;;;;;;5022824;28;20063;-67
2024/01/21 07:14:08;;;;;;;8.48;4.13;;;;;;;;;;5039323;28;20064;-77
2024/01/21 07:16:34;;;;;;;8.02;3.70;;;;;;;;;;5021827;28;20220;-67
2024/01/21 07:19:00;;;;;;;8.18;3.83;;;;;;;;;;5030158;28;20178;-67
2024/01/21 07:21:27;;;;;;;8.05;3.80;;;;;;;;;;5039596;28;20139;-66
2024/01/21 07:23:53;;;;;;;10.00;4.35;;;;;;;;;;5039245;28;20056;-67
2024/01/21 07:26:22;;;;;;;9.52;4.60;;;;;;;;;;5056187;28;20045;-66
2024/01/21 07:28:48;;;;;;;9.65;4.63;;;;;;;;;;5049068;28;20098;-67
2024/01/21 07:31:15;;;;;;;14.07;4.00;;;;;;;;;;5037031;28;20053;-66
2024/01/21 07:33:41;;;;;;;9.77;3.88;;;;;;;;;;5039856;28;20045;-66
2024/01/21 07:36:07;;;;;;;8.63;4.20;;;;;;;;;;5039566;28;20400;-66
2024/01/21 07:38:33;;;;;;;10.30;4.38;;;;;;;;;;5040467;28;20041;-67
2024/01/21 07:41:01;;;;;;;7.00;3.97;;;;;;;;;;5042297;28;20076;-68
2024/01/21 07:43:27;;;;;;;9.68;4.18;;;;;;;;;;5056108;28;20095;-66
2024/01/21 07:45:53;;;;;;;8.38;3.80;;;;;;;;;;5020297;28;20626;-67
2024/01/21 07:48:20;;;;;;;10.60;4.43;;;;;;;;;;5045999;28;20045;-66
2024/01/21 07:50:47;;;;;;;7.45;3.88;;;;;;;;;;5042967;28;20143;-66
2024/01/21 07:53:13;;;;;;;10.95;4.88;;;;;;;;;;5027542;28;20049;-66
2024/01/21 07:55:39;;;;;;;8.20;4.25;;;;;;;;;;5030112;28;20135;-66
2024/01/21 07:58:06;;;;;;;9.90;5.00;;;;;;;;;;5044647;28;20501;-67
2024/01/21 08:00:32;;;;;;;10.25;4.65;;;;;;;;;;5027526;28;20048;-66
2024/01/21 08:02:58;;;;;;;9.80;5.22;;;;;;;;;;5014442;28;20085;-66
2024/01/21 08:05:24;;;;;;;11.57;5.00;;;;;;;;;;5055215;28;20082;-68
2024/01/21 08:07:50;;;;;;;10.00;5.20;;;;;;;;;;5039182;28;20044;-68
2024/01/21 08:10:17;;;;;;;9.45;4.35;;;;;;;;;;5069629;28;20411;-66
2024/01/21 08:12:43;;;;;;;11.15;4.88;;;;;;;;;;5059086;28;20049;-66
2024/01/21 08:15:09;;;;;;;9.05;4.40;;;;;;;;;;5043658;28;20364;-67
2024/01/21 08:17:36;;;;;;;10.82;5.32;;;;;;;;;;5034163;28;20068;-65
2024/01/21 08:20:02;;;;;;;9.63;4.65;;;;;;;;;;5037624;28;20051;-67
2024/01/21 08:22:28;;;;;;;9.40;4.32;;;;;;;;;;5023317;28;20093;-66
2024/01/21 08:24:54;;;;;;;9.57;5.13;;;;;;;;;;5043444;28;20036;-65
2024/01/21 08:27:21;;;;;;;9.50;4.70;;;;;;;;;;5028323;28;20048;-66
2024/01/21 08:29:47;;;;;;;11.13;4.60;;;;;;;;;;5025295;28;20049;-65
2024/01/21 08:32:13;;;;;;;9.50;4.78;;;;;;;;;;5030519;28;20042;-66
2024/01/21 08:34:40;;;;;;;10.65;5.18;;;;;;;;;;5042501;28;20147;-65
2024/01/21 08:37:06;;;;;;;10.23;5.35;;;;;;;;;;5030422;28;20037;-65
2024/01/21 08:39:32;;;;;;;10.15;5.65;;;;;;;;;;5046665;28;20098;-66
2024/01/21 08:41:58;;;;;;;13.20;5.60;;;;;;;;;;5039986;28;20049;-72
2024/01/21 08:44:24;;;;;;;12.85;5.68;;;;;;;;;;5014608;28;20093;-66
2024/01/21 08:46:51;;;;;;;12.15;5.60;;;;;;;;;;5045239;28;20136;-66
2024/01/21 08:49:17;;;;;;;12.95;6.43;;;;;;;;;;5022740;28;20051;-65
2024/01/21 08:51:43;;;;;;;11.48;5.63;;;;;;;;;;5038997;28;20071;-69
2024/01/21 08:54:09;;;;;;;10.80;6.07;;;;;;;;;;5024419;28;20049;-66
2024/01/21 08:56:35;;;;;;;15.07;6.05;;;;;;;;;;5039358;28;20497;-65
2024/01/21 08:59:02;;;;;;;14.73;6.38;;;;;;;;;;5027790;28;20045;-66
2024/01/21 09:01:28;;;;;;;11.23;5.63;;;;;;;;;;5051263;28;20123;-66
2024/01/21 09:03:54;;;;;;;11.50;5.97;;;;;;;;;;5047583;28;20044;-66
2024/01/21 09:06:21;;;;;;;9.57;5.55;;;;;;;;;;5047659;28;20473;-66
2024/01/21 09:08:51;;;;;;;14.55;7.10;;;;;;;;;;5030581;28;20047;-66
2024/01/21 09:11:18;;;;;;;10.38;5.90;;;;;;;;;;5034466;28;20216;-66
2024/01/21 09:13:44;;;;;;;12.57;5.85;;;;;;;;;;5016661;28;20032;-66
2024/01/21 09:16:10;;;;;;;11.57;6.25;;;;;;;;;;5020424;28;20040;-66
2024/01/21 09:18:36;;;;;;;9.45;5.45;;;;;;;;;;5023620;28;20049;-66
2024/01/21 09:21:02;;;;;;;11.48;5.80;;;;;;;;;;5027782;28;20052;-66
2024/01/21 09:23:29;;;;;;;10.57;6.05;;;;;;;;;;5030620;28;20037;-66
2024/01/21 09:25:55;;;;;;;10.45;5.85;;;;;;;;;;5035764;28;20124;-66
2024/01/21 09:28:23;;;;;;;11.52;5.80;;;;;;;;;;5035942;28;20057;-67
2024/01/21 09:30:49;;;;;;;10.27;5.22;;;;;;;;;;5039458;28;20075;-66
2024/01/21 09:33:17;;;;;;;12.57;5.45;;;;;;;;;;5040432;28;20458;-66
2024/01/21 09:35:43;;;;;;;9.93;5.95;;;;;;;;;;5060658;28;20049;-66
2024/01/21 09:38:10;;;;;;;9.98;6.00;;;;;;;;;;5039592;28;20144;-66
2024/01/21 09:40:37;;;;;;;10.40;5.18;;;;;;;;;;5047968;28;20045;-66
2024/01/21 09:43:03;;;;;;;10.18;5.28;;;;;;;;;;5036871;28;20071;-67
2024/01/21 09:45:32;;;;;;;13.63;5.90;;;;;;;;;;5037938;28;20102;-66
2024/01/21 09:48:00;;;;;;;8.85;5.15;;;;;;;;;;5033900;28;20040;-66
2024/01/21 09:50:27;;;;;;;11.15;5.75;;;;;;;;;;5039026;28;20049;-66
2024/01/21 09:52:53;;;;;;;11.45;7.25;;;;;;;;;;5022570;28;20487;-66
2024/01/21 09:55:19;;;;;;;8.82;5.13;;;;;;;;;;5047001;28;20174;-66
2024/01/21 09:57:46;;;;;;;12.52;6.15;;;;;;;;;;5032288;28;20140;-66
2024/01/21 10:00:13;;;;;;;13.20;6.30;;;;;;;;;;5043690;28;20048;-66
2024/01/21 10:02:43;;;;;;;11.00;6.40;;;;;;;;;;5037334;28;20060;-66
2024/01/21 10:05:10;;;;;;;13.65;6.05;;;;;;;;;;5036225;28;20047;-66
2024/01/21 10:07:39;;;;;;;11.00;6.13;;;;;;;;;;5036071;28;20045;-66
2024/01/21 10:10:06;;;;;;;18.45;6.28;;;;;;;;;;5053156;28;20033;-66
2024/01/21 10:12:34;;;;;;;11.63;5.72;;;;;;;;;;5027931;28;20123;-66
2024/01/21 10:15:00;;;;;;;15.00;7.13;;;;;;;;;;5030107;28;20051;-66
2024/01/21 10:17:26;;;;;;;11.07;6.63;;;;;;;;;;5043574;28;20075;-66
2024/01/21 10:19:53;;;;;;;12.38;6.00;;;;;;;;;;5045970;28;20127;-66
2024/01/21 10:22:22;;;;;;;14.02;7.25;;;;;;;;;;5045771;28;20501;-66
2024/01/21 10:24:49;;;;;;;11.10;6.03;;;;;;;;;;5048034;28;20091;-66
2024/01/21 10:27:16;;;;;;;11.65;5.53;;;;;;;;;;5048458;28;20073;-66
2024/01/21 10:29:43;;;;;;;12.30;6.57;;;;;;;;;;5052958;28;20049;-66
2024/01/21 10:32:11;;;;;;;14.48;6.40;;;;;;;;;;5051968;28;20492;-66
2024/01/21 10:34:38;;;;;;;12.32;6.13;;;;;;;;;;5040211;28;20088;-66
2024/01/21 10:37:05;;;;;;;12.75;6.50;;;;;;;;;;5034848;28;20132;-66
2024/01/21 10:39:32;;;;;;;12.07;6.82;;;;;;;;;;5012613;28;20060;-66
2024/01/21 10:42:00;;;;;;;14.57;7.20;;;;;;;;;;5035377;28;20044;-66
2024/01/21 10:44:27;;;;;;;13.00;6.55;;;;;;;;;;5042771;28;20138;-66
2024/01/21 10:46:55;;;;;;;13.50;6.93;;;;;;;;;;5040771;28;20057;-66
2024/01/21 10:49:21;;;;;;;15.70;7.80;;;;;;;;;;5034723;28;20160;-66
2024/01/21 10:51:52;;;;;;;13.77;7.30;;;;;;;;;;5030443;28;20049;-66
2024/01/21 10:54:18;;;;;;;15.75;7.85;;;;;;;;;;5028246;28;20048;-66
2024/01/21 10:56:44;;;;;;;15.63;7.22;;;;;;;;;;5047785;28;20048;-66
2024/01/21 10:59:11;;;;;;;13.90;7.18;;;;;;;;;;5033443;28;20206;-66
2024/01/21 11:01:37;;;;;;;14.32;8.00;;;;;;;;;;5041042;28;20043;-67
2024/01/21 11:04:07;;;;;;;14.00;7.53;;;;;;;;;;5034954;28;20393;-66
2024/01/21 11:06:34;;;;;;;13.82;7.35;;;;;;;;;;5034460;28;21328;-66
2024/01/21 11:09:03;;;;;;;13.00;7.00;;;;;;;;;;5035867;28;20051;-66
2024/01/21 11:11:29;;;;;;;12.25;6.65;;;;;;;;;;5030839;28;20052;-66
2024/01/21 11:13:56;;;;;;;12.18;6.85;;;;;;;;;;5044121;28;20037;-66
2024/01/21 11:16:28;;;;;;;13.43;7.45;;;;;;;;;;5044573;28;20084;-66
2024/01/21 11:18:58;;;;;;;16.48;8.07;;;;;;;;;;5034967;28;20128;-66
2024/01/21 11:21:26;;;;;;;15.52;7.45;;;;;;;;;;5030655;28;20071;-66
2024/01/21 11:24:03;;;;;;;13.98;7.35;;;;;;;;;;5037803;28;20694;-66
2024/01/21 11:26:30;;;;;;;18.42;9.80;;;;;;;;;;5056099;28;20045;-66
2024/01/21 11:29:00;;;;;;;17.95;8.07;;;;;;;;;;5054813;28;20057;-66
2024/01/21 11:31:26;;;;;;;17.23;8.60;;;;;;;;;;5047745;28;20053;-66
2024/01/21 11:34:05;;;;;;;16.80;8.23;;;;;;;;;;5042910;28;20319;-66
2024/01/21 11:36:32;;;;;;;18.20;9.60;;;;;;;;;;5043131;28;20884;-66
2024/01/21 11:38:59;;;;;;;18.23;9.57;;;;;;;;;;5034474;28;20067;-66
2024/01/21 11:41:39;;;;;;;18.92;9.20;;;;;;;;;;5057302;28;20048;-66
2024/01/21 11:44:10;;;;;;;22.73;10.43;;;;;;;;;;5040827;28;20084;-66
2024/01/21 11:46:37;;;;;;;20.42;10.23;;;;;;;;;;5037687;28;20051;-66
2024/01/21 11:49:03;;;;;;;20.13;9.88;;;;;;;;;;5031168;28;20044;-67
2024/01/21 11:51:30;;;;;;;21.77;10.45;;;;;;;;;;5035195;28;20439;-66
2024/01/21 11:53:56;;;;;;;22.77;10.02;;;;;;;;;;5052466;28;20082;-66
2024/01/21 11:56:22;;;;;;;25.25;11.27;;;;;;;;;;5037463;28;20393;-66
2024/01/21 11:58:49;;;;;;;24.55;11.27;;;;;;;;;;5045839;28;20455;-66
2024/01/21 12:01:15;;;;;;;18.45;10.80;;;;;;;;;;5037377;28;20044;-66
2024/01/21 12:03:41;;;;;;;18.73;10.30;;;;;;;;;;5046970;28;20041;-66
2024/01/21 12:06:08;;;;;;;22.75;10.38;;;;;;;;;;5051051;28;20056;-66
2024/01/21 12:08:35;;;;;;;26.75;11.27;;;;;;;;;;5036840;28;20076;-66
2024/01/21 12:11:01;;;;;;;20.10;10.20;;;;;;;;;;5019683;28;20110;-66
2024/01/21 12:13:27;;;;;;;20.25;11.38;;;;;;;;;;5045570;28;20044;-66
2024/01/21 12:15:53;;;;;;;24.27;12.07;;;;;;;;;;5051546;28;20037;-66
2024/01/21 12:18:20;;;;;;;22.98;12.07;;;;;;;;;;5052951;28;20058;-66
2024/01/21 12:20:46;;;;;;;18.27;10.93;;;;;;;;;;5033543;28;20060;-66
2024/01/21 12:23:19;;;;;;;28.55;11.23;;;;;;;;;;5038284;28;20055;-67
2024/01/21 12:25:46;;;;;;;24.25;12.35;;;;;;;;;;5017181;28;20041;-66
2024/01/21 12:28:12;;;;;;;24.42;12.27;;;;;;;;;;5039522;28;20064;-66
2024/01/21 12:30:39;;;;;;;25.35;11.55;;;;;;;;;;5032200;28;20132;-66
2024/01/21 12:33:05;;;;;;;28.02;11.68;;;;;;;;;;5045394;28;20103;-66
2024/01/21 12:35:31;;;;;;;20.77;11.38;;;;;;;;;;5047420;28;20464;-66
2024/01/21 12:37:59;;;;;;;19.85;11.75;;;;;;;;;;5036070;28;20036;-66
2024/01/21 12:40:26;;;;;;;21.40;11.55;;;;;;;;;;5035773;28;20385;-66
2024/01/21 12:42:53;;;;;;;26.63;11.65;;;;;;;;;;5040801;28;20094;-66
2024/01/21 12:45:19;;;;;;;20.35;11.68;;;;;;;;;;5033368;28;20373;-66
2024/01/21 12:47:45;;;;;;;21.85;12.00;;;;;;;;;;5038904;28;20139;-66
2024/01/21 12:50:11;;;;;;;31.17;12.98;;;;;;;;;;5038800;28;20437;-67
2024/01/21 12:52:38;;;;;;;21.33;11.68;;;;;;;;;;5055097;28;20519;-66
2024/01/21 12:55:04;;;;;;;21.13;11.52;;;;;;;;;;5043196;28;20085;-66
2024/01/21 12:57:31;;;;;;;23.58;12.23;;;;;;;;;;5047695;28;20111;-66
2024/01/21 12:59:57;;;;;;;33.42;12.70;;;;;;;;;;5048988;28;20066;-66
2024/01/21 13:02:24;;;;;;;25.95;12.73;;;;;;;;;;5062598;28;20123;-66
2024/01/21 13:04:51;;;;;;;20.27;11.65;;;;;;;;;;5036137;28;20045;-66
2024/01/21 13:07:18;;;;;;;22.65;11.18;;;;;;;;;;5023702;28;20083;-66
2024/01/21 13:09:44;;;;;;;22.92;12.27;;;;;;;;;;5047467;28;20434;-67
2024/01/21 13:12:10;;;;;;;27.48;12.00;;;;;;;;;;5041307;28;20444;-67
2024/01/21 13:14:36;;;;;;;23.77;12.77;;;;;;;;;;5041398;28;20032;-67
2024/01/21 13:17:03;;;;;;;27.92;13.90;;;;;;;;;;5049730;28;20045;-66
2024/01/21 13:19:29;;;;;;;27.15;12.73;;;;;;;;;;5036293;28;20041;-66
2024/01/21 13:21:55;;;;;;;23.58;13.23;;;;;;;;;;5036215;28;20045;-66
2024/01/21 13:24:21;;;;;;;28.33;13.02;;;;;;;;;;5048950;28;20143;-67
2024/01/21 13:26:52;;;;;;;25.48;12.75;;;;;;;;;;5041896;28;20473;-67
2024/01/21 13:32:05;;;;;;;25.67;12.20;;;;;;;;;;5040091;28;20053;-67
2024/01/21 13:34:31;;;;;;;23.60;11.23;;;;;;;;;;5002854;28;20045;-67
2024/01/21 13:36:58;;;;;;;24.50;12.27;;;;;;;;;;5024089;28;20081;-66
2024/01/21 13:39:25;;;;;;;26.70;11.90;;;;;;;;;;5037980;28;20044;-66
2024/01/21 13:41:51;;;;;;;28.35;12.10;;;;;;;;;;5024225;28;20057;-67
2024/01/21 13:44:17;;;;;;;23.98;10.38;;;;;;;;;;5043137;28;20041;-67
2024/01/21 13:46:43;;;;;;;24.55;12.55;;;;;;;;;;5043662;28;20469;-66
2024/01/21 13:49:10;;;;;;;27.00;12.85;;;;;;;;;;5033974;28;20648;-67
2024/01/21 13:51:36;;;;;;;27.40;12.52;;;;;;;;;;5035760;28;20040;-67
2024/01/21 13:54:02;;;;;;;26.05;11.85;;;;;;;;;;5034154;28;20060;-67
2024/01/21 13:56:28;;;;;;;21.80;12.07;;;;;;;;;;5031529;28;20045;-66
2024/01/21 13:58:55;;;;;;;26.90;13.15;;;;;;;;;;5036709;28;20400;-67
2024/01/21 14:01:21;;;;;;;23.35;10.98;;;;;;;;;;5007601;28;20540;-67
2024/01/21 14:03:47;;;;;;;24.67;11.15;;;;;;;;;;5051108;28;20035;-67
2024/01/21 14:06:13;;;;;;;22.88;10.90;;;;;;;;;;5028188;28;20056;-67
2024/01/21 14:08:40;;;;;;;25.02;11.30;;;;;;;;;;5043790;28;20044;-67
2024/01/21 14:11:07;;;;;;;25.38;10.82;;;;;;;;;;5034803;28;20484;-67
2024/01/21 14:13:34;;;;;;;23.17;12.70;;;;;;;;;;5047114;28;20124;-67
2024/01/21 14:16:01;;;;;;;26.00;11.48;;;;;;;;;;5033356;28;20080;-66
2024/01/21 14:18:27;;;;;;;27.25;12.20;;;;;;;;;;5049401;28;20113;-67
2024/01/21 14:20:53;;;;;;;22.70;10.73;;;;;;;;;;5037922;28;20063;-67
2024/01/21 14:23:19;;;;;;;27.85;12.82;;;;;;;;;;5051296;28;20101;-67
2024/01/21 14:25:48;;;;;;;22.10;9.48;;;;;;;;;;5041890;28;20044;-67
2024/01/21 14:28:15;;;;;;;30.95;13.35;;;;;;;;;;5050221;28;20108;-67
2024/01/21 14:30:42;;;;;;;34.53;12.80;;;;;;;;;;5036927;28;20049;-67